createdAt,value
2023-05-05T00:00:00.499Z,9.9
2023-05-05T00:04:00.577Z,9.9
2023-05-05T00:08:00.429Z,9.7
2023-05-05T00:12:00.472Z,9.6
2023-05-05T00:16:00.446Z,9.5
2023-05-05T00:20:00.478Z,9.6
2023-05-05T00:24:00.485Z,9.6
2023-05-05T00:28:00.450Z,9.7
2023-05-05T00:32:00.472Z,9.6
2023-05-05T00:36:00.460Z,9.5
2023-05-05T00:40:00.452Z,9.4
2023-05-05T00:44:00.468Z,9.5
2023-05-05T00:48:00.531Z,9.3
2023-05-05T00:52:00.450Z,9.3
2023-05-05T00:56:00.451Z,9.3
2023-05-05T01:00:00.440Z,9.2
2023-05-05T01:04:00.477Z,9.1
2023-05-05T01:08:00.465Z,9.3
2023-05-05T01:12:00.426Z,9.2
2023-05-05T01:16:00.504Z,9.1
2023-05-05T01:20:00.432Z,9.1
2023-05-05T01:24:00.457Z,9.0
2023-05-05T01:28:00.438Z,9.0
2023-05-05T01:32:00.573Z,8.9
2023-05-05T01:36:00.424Z,8.9
2023-05-05T01:40:00.431Z,8.8
2023-05-05T01:44:00.449Z,8.8
2023-05-05T01:48:00.455Z,8.7
2023-05-05T01:52:00.437Z,8.6
2023-05-05T01:56:00.454Z,8.6
2023-05-05T02:00:00.479Z,8.6
2023-05-05T02:04:00.463Z,8.6
2023-05-05T02:08:00.440Z,8.6
2023-05-05T02:12:00.444Z,8.5
2023-05-05T02:16:00.454Z,8.4
2023-05-05T02:20:00.463Z,8.4
2023-05-05T02:24:00.449Z,8.4
2023-05-05T02:28:00.458Z,8.1
2023-05-05T02:32:00.457Z,8.4
2023-05-05T02:36:00.473Z,8.1
2023-05-05T02:40:00.452Z,8.0
2023-05-05T02:44:00.471Z,7.7
2023-05-05T02:48:00.490Z,7.9
2023-05-05T02:52:00.480Z,8.1
2023-05-05T02:56:00.457Z,8.0
2023-05-05T03:00:00.461Z,7.9
2023-05-05T03:04:00.444Z,7.9
2023-05-05T03:08:00.459Z,7.9
2023-05-05T03:12:00.475Z,7.7
2023-05-05T03:16:00.511Z,7.5
2023-05-05T03:20:02.949Z,7.3
2023-05-05T03:24:00.455Z,7.5
2023-05-05T03:28:00.446Z,7.5
2023-05-05T03:32:00.536Z,7.6
2023-05-05T03:36:00.465Z,7.6
2023-05-05T03:40:00.422Z,7.5
2023-05-05T03:44:00.457Z,7.4
2023-05-05T03:48:00.473Z,7.4
2023-05-05T03:52:00.430Z,7.6
2023-05-05T03:56:00.431Z,7.7
2023-05-05T04:00:00.451Z,7.9
2023-05-05T04:04:00.526Z,7.9
2023-05-05T04:08:00.456Z,7.7
2023-05-05T04:12:00.457Z,7.7
2023-05-05T04:16:00.507Z,7.7
2023-05-05T04:20:00.476Z,7.9
2023-05-05T04:24:00.428Z,7.9
2023-05-05T04:28:00.453Z,8.1
2023-05-05T04:32:00.464Z,8.1
2023-05-05T04:36:00.436Z,8.2
2023-05-05T04:40:00.439Z,8.5
2023-05-05T04:44:00.440Z,8.6
2023-05-05T04:48:00.445Z,8.7
2023-05-05T04:52:00.441Z,8.9
2023-05-05T04:56:00.451Z,9.3
2023-05-05T05:00:00.463Z,9.3
2023-05-05T05:04:00.614Z,9.5
2023-05-05T05:08:00.436Z,9.4
2023-05-05T05:12:00.443Z,9.7
2023-05-05T05:16:00.573Z,10.2
2023-05-05T05:20:00.457Z,10.5
2023-05-05T05:24:00.448Z,11.0
2023-05-05T05:28:09.379Z,11.1
2023-05-05T05:32:00.485Z,11.3
2023-05-05T05:36:00.474Z,11.7
2023-05-05T05:40:00.437Z,11.4
2023-05-05T05:44:00.466Z,11.4
2023-05-05T05:48:00.486Z,11.5
2023-05-05T05:52:00.481Z,11.5
2023-05-05T05:56:00.452Z,11.2
2023-05-05T06:00:01.930Z,11.1
2023-05-05T06:04:00.554Z,11.6
2023-05-05T06:08:00.479Z,12.7
2023-05-05T06:12:00.451Z,13.4
2023-05-05T06:16:00.471Z,13.4
2023-05-05T06:20:00.470Z,13.7
2023-05-05T06:24:00.468Z,14.6
2023-05-05T06:28:00.447Z,14.6
2023-05-05T06:32:00.444Z,15.0
2023-05-05T06:36:00.441Z,15.3
2023-05-05T06:40:00.439Z,14.6
2023-05-05T06:44:00.420Z,14.6
2023-05-05T06:48:00.488Z,15.5
2023-05-05T06:52:00.463Z,16.7
2023-05-05T06:56:00.423Z,15.6
2023-05-05T07:00:00.436Z,15.2
2023-05-05T07:04:00.532Z,15.2
2023-05-05T07:08:00.461Z,15.7
2023-05-05T07:12:00.423Z,15.6
2023-05-05T07:16:00.443Z,14.9
2023-05-05T07:20:00.434Z,14.6
2023-05-05T07:24:00.474Z,15.4
2023-05-05T07:28:00.435Z,15.7
2023-05-05T07:32:00.489Z,15.3
2023-05-05T07:36:00.478Z,16.0
2023-05-05T07:40:00.482Z,17.0
2023-05-05T07:44:00.444Z,17.8
2023-05-05T07:48:00.700Z,17.7
2023-05-05T07:52:00.444Z,18.1
2023-05-05T07:56:00.466Z,17.5
2023-05-05T08:00:00.470Z,17.5
2023-05-05T08:04:00.525Z,18.5
2023-05-05T08:08:00.461Z,18.7
2023-05-05T08:12:00.438Z,18.3
2023-05-05T08:16:00.505Z,18.5
2023-05-05T08:20:00.443Z,18.4
2023-05-05T08:24:00.450Z,18.8
2023-05-05T08:28:00.437Z,18.5
2023-05-05T08:32:00.590Z,19.6
2023-05-05T08:36:00.460Z,19.8
2023-05-05T08:40:00.562Z,19.8
2023-05-05T08:44:00.436Z,19.8
2023-05-05T08:48:00.493Z,20.7
2023-05-05T08:52:00.440Z,20.2
2023-05-05T08:56:00.435Z,21.2
2023-05-05T09:00:00.465Z,20.6
2023-05-05T09:04:00.436Z,21.2
2023-05-05T09:08:00.461Z,21.2
2023-05-05T09:12:00.447Z,21.2
2023-05-05T09:16:00.450Z,21.1
2023-05-05T09:20:00.467Z,20.7
2023-05-05T09:24:07.751Z,21.3
2023-05-05T09:28:00.459Z,21.1
2023-05-05T09:32:00.454Z,22.1
2023-05-05T09:36:00.439Z,21.8
2023-05-05T09:40:00.449Z,22.7
2023-05-05T09:44:00.465Z,22.2
2023-05-05T09:48:00.917Z,21.9
2023-05-05T09:52:00.445Z,22.8
2023-05-05T09:56:00.441Z,23.4
2023-05-05T10:00:00.449Z,23.9
2023-05-05T10:04:00.453Z,22.9
2023-05-05T10:08:00.436Z,22.8
2023-05-05T10:12:00.457Z,23.4
2023-05-05T10:16:00.432Z,23.7
2023-05-05T10:20:00.461Z,23.7
2023-05-05T10:24:00.442Z,23.1
2023-05-05T10:28:00.423Z,22.8
2023-05-05T10:32:00.497Z,22.5
2023-05-05T10:36:00.455Z,23.1
2023-05-05T10:40:00.465Z,23.8
2023-05-05T10:44:02.854Z,23.7
2023-05-05T10:48:00.508Z,24.2
2023-05-05T10:52:00.444Z,24.0
2023-05-05T10:56:00.454Z,23.6
2023-05-05T11:00:00.437Z,24.3
2023-05-05T11:04:00.499Z,24.7
2023-05-05T11:08:00.433Z,24.1
2023-05-05T11:12:00.456Z,24.0
2023-05-05T11:16:00.448Z,25.3
2023-05-05T11:20:00.448Z,23.5
2023-05-05T11:24:00.465Z,24.9
2023-05-05T11:28:00.434Z,24.4
2023-05-05T11:32:00.439Z,24.2
2023-05-05T11:36:00.974Z,24.6
2023-05-05T11:40:00.456Z,24.9
2023-05-05T11:44:00.461Z,25.2
2023-05-05T11:48:00.524Z,24.1
2023-05-05T11:52:00.476Z,22.4
2023-05-05T11:56:00.442Z,23.4
2023-05-05T12:00:00.456Z,24.3
2023-05-05T12:04:00.566Z,24.1
2023-05-05T12:08:00.447Z,23.6
2023-05-05T12:12:00.449Z,24.4
2023-05-05T12:16:00.470Z,24.3
2023-05-05T12:20:00.452Z,26.5
2023-05-05T12:24:00.422Z,25.4
2023-05-05T12:28:00.458Z,25.1
2023-05-05T12:32:00.556Z,25.2
2023-05-05T12:36:00.441Z,25.6
2023-05-05T12:40:00.455Z,25.6
2023-05-05T12:44:00.461Z,25.1
2023-05-05T12:48:00.465Z,24.9
2023-05-05T12:52:00.437Z,24.7
2023-05-05T12:56:00.436Z,25.3
2023-05-05T13:00:00.486Z,24.7
2023-05-05T13:04:00.451Z,24.1
2023-05-05T13:08:00.453Z,24.5
2023-05-05T13:12:00.440Z,24.5
2023-05-05T13:16:00.461Z,25.1
2023-05-05T13:20:00.482Z,25.1
2023-05-05T13:24:18.248Z,24.4
2023-05-05T13:28:00.458Z,25.1
2023-05-05T13:32:00.456Z,24.7
2023-05-05T13:36:00.455Z,25.3
2023-05-05T13:40:00.483Z,24.0
2023-05-05T13:44:00.455Z,25.1
2023-05-05T13:48:00.467Z,24.3
2023-05-05T13:52:00.448Z,24.4
2023-05-05T13:56:00.451Z,23.1
2023-05-05T14:00:00.463Z,24.2
2023-05-05T14:04:02.016Z,24.3
2023-05-05T14:08:00.451Z,24.2
2023-05-05T14:12:00.442Z,23.4
2023-05-05T14:16:00.506Z,24.1
2023-05-05T14:20:00.434Z,22.8
2023-05-05T14:24:00.477Z,23.2
2023-05-05T14:28:00.445Z,23.9
2023-05-05T14:32:00.510Z,23.8
2023-05-05T14:36:00.457Z,23.8
2023-05-05T14:40:00.443Z,22.8
2023-05-05T14:44:00.453Z,21.6
2023-05-05T14:48:00.484Z,21.8
2023-05-05T14:52:00.483Z,21.4
2023-05-05T14:56:00.472Z,22.9
2023-05-05T15:00:00.465Z,22.9
2023-05-05T15:04:00.520Z,22.8
2023-05-05T15:08:00.462Z,22.4
2023-05-05T15:12:00.454Z,22.4
2023-05-05T15:16:00.532Z,22.9
2023-05-05T15:20:00.450Z,22.3
2023-05-05T15:24:00.453Z,22.8
2023-05-05T15:28:00.430Z,22.6
2023-05-05T15:32:00.617Z,23.0
2023-05-05T15:36:00.460Z,22.9
2023-05-05T15:40:00.440Z,22.4
2023-05-05T15:44:00.447Z,22.6
2023-05-05T15:48:00.485Z,22.2
2023-05-05T15:52:00.436Z,22.0
2023-05-05T15:56:00.466Z,21.6
2023-05-05T16:00:00.450Z,21.1
2023-05-05T16:04:00.448Z,20.8
2023-05-05T16:08:00.440Z,20.0
2023-05-05T16:12:00.473Z,20.0
2023-05-05T16:16:00.444Z,19.9
2023-05-05T16:20:00.487Z,19.4
2023-05-05T16:24:00.440Z,19.3
2023-05-05T16:28:00.484Z,19.2
2023-05-05T16:32:00.453Z,19.0
2023-05-05T16:36:00.448Z,18.9
2023-05-05T16:40:00.453Z,18.6
2023-05-05T16:44:00.437Z,18.5
2023-05-05T16:48:00.505Z,18.4
2023-05-05T16:52:00.463Z,18.3
2023-05-05T16:56:00.485Z,18.2
2023-05-05T17:00:00.448Z,18.1
2023-05-05T17:04:00.435Z,18.1
2023-05-05T17:08:00.438Z,17.9
2023-05-05T17:12:00.428Z,17.8
2023-05-05T17:16:00.488Z,17.7
2023-05-05T17:20:00.533Z,17.7
2023-05-05T17:24:00.458Z,17.5
2023-05-05T17:28:00.445Z,17.4
2023-05-05T17:32:00.530Z,17.4
2023-05-05T17:36:00.492Z,17.3
2023-05-05T17:40:00.448Z,17.2
2023-05-05T17:44:00.467Z,17.1
2023-05-05T17:48:00.528Z,17.0
2023-05-05T17:52:00.447Z,16.9
2023-05-05T17:56:00.444Z,16.9
2023-05-05T18:00:00.439Z,16.8
2023-05-05T18:04:00.457Z,16.7
2023-05-05T18:08:00.436Z,16.6
2023-05-05T18:12:00.449Z,16.5
2023-05-05T18:16:00.488Z,16.3
2023-05-05T18:20:00.434Z,16.2
2023-05-05T18:24:11.619Z,16.1
2023-05-05T18:28:00.475Z,16.0
2023-05-05T18:32:00.445Z,15.9
2023-05-05T18:36:00.501Z,15.8
2023-05-05T18:40:00.441Z,15.7
2023-05-05T18:44:00.426Z,15.6
2023-05-05T18:48:00.487Z,15.6
2023-05-05T18:52:00.454Z,15.5
2023-05-05T18:56:00.457Z,15.4
2023-05-05T19:00:00.463Z,15.4
2023-05-05T19:04:00.470Z,15.3
2023-05-05T19:08:00.445Z,15.2
2023-05-05T19:12:00.461Z,15.2
2023-05-05T19:16:00.500Z,15.2
2023-05-05T19:20:00.495Z,15.1
2023-05-05T19:24:00.473Z,15.1
2023-05-05T19:28:00.455Z,15.0
2023-05-05T19:32:00.581Z,15.0
2023-05-05T19:36:00.458Z,14.9
2023-05-05T19:40:00.455Z,14.8
2023-05-05T19:44:00.436Z,14.7
2023-05-05T19:48:00.453Z,14.8
2023-05-05T19:52:00.431Z,14.7
2023-05-05T19:56:00.429Z,14.6
2023-05-05T20:00:00.444Z,14.4
2023-05-05T20:04:00.495Z,14.3
2023-05-05T20:08:00.443Z,14.2
2023-05-05T20:12:00.441Z,14.2
2023-05-05T20:16:00.507Z,14.1
2023-05-05T20:20:00.435Z,14.0
2023-05-05T20:24:00.445Z,13.8
2023-05-05T20:28:00.479Z,13.9
2023-05-05T20:32:00.452Z,13.7
2023-05-05T20:36:00.470Z,13.6
2023-05-05T20:40:00.458Z,13.6
2023-05-05T20:44:00.435Z,13.5
2023-05-05T20:48:00.510Z,13.5
2023-05-05T20:52:00.489Z,13.5
2023-05-05T20:56:00.434Z,13.5
2023-05-05T21:00:00.454Z,13.4
2023-05-05T21:04:00.504Z,13.4
2023-05-05T21:08:01.009Z,13.4
2023-05-05T21:12:00.468Z,13.4
2023-05-05T21:16:00.451Z,13.4
2023-05-05T21:20:00.455Z,13.5
2023-05-05T21:24:00.434Z,13.4
2023-05-05T21:28:00.447Z,13.4
2023-05-05T21:32:00.484Z,13.3
2023-05-05T21:36:00.679Z,13.2
2023-05-05T21:40:00.464Z,13.1
2023-05-05T21:44:00.454Z,13.1
2023-05-05T21:48:00.488Z,13.0
2023-05-05T21:52:00.589Z,13.0
2023-05-05T21:56:00.432Z,12.9
2023-05-05T22:00:00.498Z,12.8
2023-05-05T22:04:00.488Z,12.7
2023-05-05T22:08:00.459Z,12.5
2023-05-05T22:12:00.474Z,12.5
2023-05-05T22:16:00.474Z,12.6
2023-05-05T22:20:00.462Z,12.5
2023-05-05T22:24:00.468Z,12.4
2023-05-05T22:28:00.431Z,12.3
2023-05-05T22:32:00.452Z,12.2
2023-05-05T22:36:00.448Z,11.9
2023-05-05T22:40:00.471Z,11.7
2023-05-05T22:44:00.453Z,11.6
2023-05-05T22:48:00.449Z,11.5
2023-05-05T22:52:00.443Z,11.5
2023-05-05T22:56:00.479Z,11.5
2023-05-05T23:00:00.468Z,11.5
2023-05-05T23:04:00.438Z,11.3
2023-05-05T23:08:00.446Z,11.0
2023-05-05T23:12:00.425Z,10.9
2023-05-05T23:16:00.470Z,10.7
2023-05-05T23:20:00.468Z,10.4
2023-05-05T23:24:00.452Z,10.3
2023-05-05T23:28:00.473Z,10.1
2023-05-05T23:32:00.432Z,9.9
2023-05-05T23:36:00.464Z,9.9
2023-05-05T23:40:00.445Z,9.8
2023-05-05T23:44:00.448Z,9.6
2023-05-05T23:48:00.503Z,9.6
2023-05-05T23:52:00.440Z,9.6
2023-05-05T23:56:00.433Z,9.6
